Terminal Aerodrome Forecast
Issued by NWS

Home | Current Version | Previous Version | Text Only | Print | Product List | Glossary On
Versions: 1 2 3 4 5 6 7 8 9 10 11 12 13 14 15 16 17 18 19 20 21 22
000
FTUS43 KDLH 051120
TAFBRD
TAF
KBRD 051120Z 0512/0612 17005KT 4SM BR FEW040 SCT200
     FM051400 18010KT P6SM FEW250
     FM051700 19009G20KT P6SM VCTS BKN050CB
     FM052100 18015G27KT P6SM VCTS SCT050CB
     FM060400 17005KT 3SM -TSRA SCT015 OVC025CB=

USA.gov is the U.S. government's official web portal to all federal, state and local government web resources and services.